Time;durP1;ratioP1;P1;durP2;ratioP2;P2;SDS_P1;SDS_P2;PMS_P1;PMS_P2;Temp;Humidity;BMP_temperature;BMP_pressure;BME280_temperature;BME280_humidity;BME280_pressure;Samples;Min_cycle;Max_cycle;Signal;HPM_P1;HPM_P2
2021/12/18 00:03:17;;;;;;;0.20;0.10;;;8.80;99.90;;;;;;20743235;28;20250;-67
2021/12/18 00:13:21;;;;;;;0.20;0.10;;;8.70;99.90;;;;;;20818535;28;20186;-66
2021/12/18 00:23:26;;;;;;;0.20;0.00;;;8.80;99.90;;;;;;20907031;28;20670;-67
2021/12/18 00:33:29;;;;;;;0.53;0.53;;;8.60;99.90;;;;;;20882099;28;20230;-68
2021/12/18 00:43:39;;;;;;;0.97;0.87;;;8.60;99.90;;;;;;20824129;28;20605;-66
2021/12/18 00:53:42;;;;;;;0.20;0.10;;;8.50;99.90;;;;;;20823077;28;20190;-66
2021/12/18 01:03:48;;;;;;;0.20;0.03;;;8.50;99.90;;;;;;20824329;28;20248;-69
2021/12/18 01:14:06;;;;;;;0.20;0.10;;;8.50;99.90;;;;;;20880447;28;20201;-67
2021/12/18 01:24:11;;;;;;;0.20;0.10;;;8.30;99.90;;;;;;20919380;28;20307;-67
2021/12/18 01:34:15;;;;;;;0.20;0.10;;;8.20;99.90;;;;;;20888726;28;20194;-67
2021/12/18 01:44:50;;;;;;;0.20;0.10;;;8.20;99.90;;;;;;20817761;28;20547;-67
2021/12/18 01:54:53;;;;;;;0.20;0.10;;;8.20;99.90;;;;;;20834232;28;20202;-67
2021/12/18 02:04:58;;;;;;;0.20;0.00;;;8.10;99.90;;;;;;20816212;28;20236;-68
2021/12/18 02:25:25;;;;;;;0.20;0.10;;;8.00;99.90;;;;;;20914279;28;20320;-67
2021/12/18 02:35:30;;;;;;;0.20;0.07;;;7.80;99.90;;;;;;20845951;28;20374;-67
2021/12/18 02:45:35;;;;;;;0.20;0.10;;;7.60;99.90;;;;;;20748809;28;20222;-67
2021/12/18 02:55:39;;;;;;;0.20;0.10;;;7.60;99.90;;;;;;20749333;28;20225;-68
2021/12/18 03:05:53;;;;;;;0.20;0.00;;;7.70;99.90;;;;;;20740352;23;20597;-70
2021/12/18 03:26:19;;;;;;;0.20;0.10;;;7.70;99.90;;;;;;20809637;28;20317;-71
2021/12/18 03:36:22;;;;;;;0.20;0.10;;;7.60;99.90;;;;;;20781131;28;20199;-71
2021/12/18 03:46:27;;;;;;;0.20;0.10;;;7.60;99.90;;;;;;20745792;28;20229;-71
2021/12/18 03:56:31;;;;;;;0.20;0.10;;;7.60;99.90;;;;;;20744739;28;20226;-70
2021/12/18 04:06:39;;;;;;;0.20;0.10;;;7.70;99.90;;;;;;20812841;23;20238;-68
2021/12/18 04:16:42;;;;;;;0.20;0.10;;;7.60;99.90;;;;;;20823535;28;20695;-68
2021/12/18 04:26:47;;;;;;;0.20;0.10;;;7.50;99.90;;;;;;20823016;28;20226;-67
2021/12/18 04:36:51;;;;;;;0.20;0.03;;;7.40;99.90;;;;;;20774988;28;20285;-68
2021/12/18 04:46:56;;;;;;;0.20;0.07;;;7.40;99.90;;;;;;20774338;28;20277;-67
2021/12/18 04:56:59;;;;;;;0.20;0.20;;;7.40;99.90;;;;;;20759004;28;20205;-67
2021/12/18 05:07:04;;;;;;;0.20;0.10;;;7.40;99.90;;;;;;20819439;28;20258;-67
2021/12/18 05:17:08;;;;;;;0.20;0.00;;;7.50;99.90;;;;;;20907441;28;20591;-69
2021/12/18 05:27:13;;;;;;;0.20;0.10;;;7.40;99.90;;;;;;20901276;28;20213;-67
2021/12/18 05:37:20;;;;;;;0.20;0.10;;;7.40;99.90;;;;;;20865717;28;20564;-68
2021/12/18 05:47:25;;;;;;;0.20;0.10;;;7.20;99.90;;;;;;20836197;28;20218;-67
2021/12/18 05:57:28;;;;;;;0.20;0.10;;;7.40;99.90;;;;;;20833569;28;20687;-68
2021/12/18 06:07:43;;;;;;;0.20;0.10;;;7.30;99.90;;;;;;20834117;28;20329;-68
2021/12/18 06:17:47;;;;;;;1.03;0.83;;;7.20;99.90;;;;;;20908258;28;20203;-68
2021/12/18 06:27:55;;;;;;;0.47;0.47;;;7.10;99.90;;;;;;20914741;28;20619;-68
2021/12/18 06:37:58;;;;;;;0.20;0.10;;;7.10;99.90;;;;;;20855353;28;20195;-68
2021/12/18 06:48:04;;;;;;;0.20;0.10;;;7.10;99.90;;;;;;20831010;28;20698;-69
2021/12/18 06:58:07;;;;;;;0.20;0.10;;;7.00;99.90;;;;;;20813063;28;20252;-68
2021/12/18 07:08:12;;;;;;;0.20;0.10;;;7.10;99.90;;;;;;20812171;28;20238;-68
2021/12/18 07:18:16;;;;;;;0.20;0.20;;;7.10;99.90;;;;;;20912317;28;20236;-68
2021/12/18 07:28:21;;;;;;;0.20;0.10;;;7.20;99.90;;;;;;20909006;28;20220;-69
2021/12/18 07:38:35;;;;;;;0.20;0.10;;;7.20;99.90;;;;;;20846739;28;20667;-68
2021/12/18 07:48:40;;;;;;;0.20;0.10;;;7.40;99.90;;;;;;20826697;28;20230;-68
2021/12/18 07:58:44;;;;;;;0.20;0.10;;;7.70;99.90;;;;;;20825109;28;20281;-68
2021/12/18 08:08:50;;;;;;;0.20;0.10;;;7.90;99.90;;;;;;20823456;28;20353;-67
2021/12/18 08:18:54;;;;;;;0.30;0.30;;;8.10;99.90;;;;;;20901758;28;20292;-68
2021/12/18 08:28:59;;;;;;;0.20;0.17;;;8.40;99.90;;;;;;20922292;28;20241;-68
2021/12/18 08:39:02;;;;;;;0.20;0.10;;;8.80;99.90;;;;;;20855429;28;20213;-68
2021/12/18 08:49:07;;;;;;;0.20;0.10;;;9.20;99.90;;;;;;20835985;28;20312;-68
2021/12/18 08:59:11;;;;;;;0.20;0.10;;;9.60;99.90;;;;;;20836135;28;20610;-68
2021/12/18 09:09:16;;;;;;;0.20;0.10;;;10.10;99.90;;;;;;20840077;28;20255;-68
2021/12/18 09:19:19;;;;;;;0.20;0.10;;;10.50;99.90;;;;;;20891503;28;20532;-68
2021/12/18 09:29:25;;;;;;;0.20;0.10;;;10.80;99.90;;;;;;20833384;28;20728;-67
2021/12/18 09:39:29;;;;;;;0.20;0.10;;;11.30;99.90;;;;;;20906763;28;20545;-67
2021/12/18 09:49:34;;;;;;;0.20;0.00;;;11.80;99.90;;;;;;20912233;28;20653;-67
2021/12/18 09:59:38;;;;;;;0.20;0.10;;;12.40;99.90;;;;;;20910732;28;20307;-68
2021/12/18 10:09:44;;;;;;;0.20;0.03;;;13.00;99.90;;;;;;20910367;28;20228;-68
2021/12/18 10:19:49;;;;;;;0.20;0.10;;;13.50;99.90;;;;;;20911026;28;20228;-68
2021/12/18 10:30:07;;;;;;;0.20;0.00;;;14.00;99.90;;;;;;20911222;28;20622;-69
2021/12/18 10:40:12;;;;;;;0.20;0.10;;;15.10;99.90;;;;;;20832275;28;20643;-69
2021/12/18 10:50:25;;;;;;;0.20;0.10;;;15.60;99.90;;;;;;20811045;28;20225;-69
2021/12/18 11:00:42;;;;;;;0.30;0.30;;;15.60;99.90;;;;;;20823815;28;20229;-68
2021/12/18 11:11:05;;;;;;;0.20;0.00;;;15.80;99.90;;;;;;20838619;28;20657;-69
2021/12/18 11:21:09;;;;;;;0.20;0.00;;;15.80;99.90;;;;;;20904673;28;20583;-69
2021/12/18 11:31:14;;;;;;;0.20;0.00;;;16.00;99.90;;;;;;20902400;28;20249;-70
2021/12/18 11:41:19;;;;;;;0.20;0.00;;;16.90;99.90;;;;;;20825371;28;20202;-69
2021/12/18 11:51:24;;;;;;;0.20;0.10;;;16.90;99.90;;;;;;20817534;28;20234;-69
2021/12/18 12:01:30;;;;;;;0.20;0.10;;;18.10;99.90;;;;;;20757547;28;1278640;-70
2021/12/18 12:11:49;;;;;;;0.20;0.10;;;18.60;99.90;;;;;;20827811;28;20663;-69
2021/12/18 12:21:54;;;;;;;0.20;0.00;;;18.30;99.90;;;;;;20868704;28;20595;-69
2021/12/18 12:32:02;;;;;;;0.20;0.10;;;18.30;99.90;;;;;;20898543;28;20229;-69
2021/12/18 12:42:10;;;;;;;0.20;0.10;;;18.80;99.90;;;;;;20899129;28;20198;-68
2021/12/18 12:52:16;;;;;;;0.20;0.10;;;18.30;99.90;;;;;;20902926;28;20257;-70
2021/12/18 13:02:22;;;;;;;0.80;0.80;;;18.30;99.90;;;;;;20908568;28;20221;-70
2021/12/18 13:12:27;;;;;;;0.20;0.10;;;18.30;99.90;;;;;;20916097;28;20241;-70
2021/12/18 13:22:33;;;;;;;0.20;0.10;;;18.70;99.90;;;;;;20913554;28;20738;-68
2021/12/18 13:32:38;;;;;;;0.20;0.10;;;18.50;99.90;;;;;;20912820;28;20521;-70
2021/12/18 13:42:42;;;;;;;0.20;0.10;;;18.00;99.90;;;;;;20915804;28;20193;-69
2021/12/18 13:52:49;;;;;;;0.20;0.00;;;18.30;99.90;;;;;;20915093;28;20240;-69
2021/12/18 14:02:53;;;;;;;0.20;0.10;;;18.50;99.90;;;;;;20914909;28;20259;-69
2021/12/18 14:13:11;;;;;;;0.20;0.00;;;19.40;99.90;;;;;;20911421;28;20673;-70
2021/12/18 14:23:14;;;;;;;0.20;0.20;;;19.70;99.90;;;;;;20911762;28;20666;-70
2021/12/18 14:33:19;;;;;;;0.20;0.10;;;19.80;99.90;;;;;;20906202;28;20251;-70
2021/12/18 14:43:25;;;;;;;0.20;0.00;;;19.90;99.90;;;;;;20907234;28;20272;-69
2021/12/18 14:53:30;;;;;;;0.20;0.10;;;17.70;99.90;;;;;;20910406;28;20312;-69
2021/12/18 15:03:37;;;;;;;0.20;0.10;;;17.00;99.90;;;;;;20909160;28;20209;-69
2021/12/18 15:13:45;;;;;;;0.20;0.10;;;17.60;99.90;;;;;;20908042;28;20235;-67
2021/12/18 15:23:49;;;;;;;0.30;0.30;;;17.50;99.90;;;;;;20905085;28;20197;-69
2021/12/18 15:33:54;;;;;;;0.20;0.10;;;17.10;99.90;;;;;;20901711;28;20705;-67
2021/12/18 15:43:59;;;;;;;0.20;0.00;;;17.20;99.90;;;;;;20886399;28;20717;-67
2021/12/18 15:54:05;;;;;;;0.20;0.00;;;16.70;99.90;;;;;;20907195;28;20235;-68
2021/12/18 16:04:10;;;;;;;0.20;0.00;;;15.00;99.90;;;;;;20903133;28;20674;-69
2021/12/18 16:14:15;;;;;;;0.20;0.10;;;13.50;99.90;;;;;;20901653;28;20235;-68
2021/12/18 16:24:19;;;;;;;0.20;0.10;;;12.80;99.90;;;;;;20902007;28;20272;-68
2021/12/18 16:34:24;;;;;;;0.20;0.10;;;12.00;99.90;;;;;;20901136;28;20247;-68
2021/12/18 16:44:29;;;;;;;0.20;0.10;;;11.80;99.90;;;;;;20897912;28;20211;-68
2021/12/18 16:54:34;;;;;;;0.20;0.10;;;11.30;99.90;;;;;;20914982;28;20240;-68
2021/12/18 17:04:38;;;;;;;0.20;0.10;;;11.00;99.90;;;;;;20915885;28;20225;-67
2021/12/18 17:14:43;;;;;;;0.20;0.10;;;10.50;99.90;;;;;;20915997;28;20540;-70
2021/12/18 17:24:47;;;;;;;0.20;0.10;;;10.20;99.90;;;;;;20918022;28;20620;-70
2021/12/18 17:34:52;;;;;;;0.20;0.10;;;10.10;99.90;;;;;;20885959;28;20244;-69
2021/12/18 17:44:56;;;;;;;0.20;0.10;;;10.00;99.90;;;;;;20834174;28;20209;-68
2021/12/18 17:55:01;;;;;;;0.20;0.03;;;10.00;99.90;;;;;;20833205;28;20237;-69
2021/12/18 18:05:06;;;;;;;0.20;0.13;;;10.00;99.90;;;;;;20833121;28;20228;-68
2021/12/18 18:15:11;;;;;;;0.20;0.10;;;10.30;99.90;;;;;;20884176;28;20235;-68
2021/12/18 18:25:15;;;;;;;0.20;0.20;;;10.50;99.90;;;;;;20912794;28;20198;-69
2021/12/18 18:35:21;;;;;;;38.30;5.50;;;10.60;99.90;;;;;;20878488;28;20317;-68
2021/12/18 18:45:29;;;;;;;0.20;0.10;;;10.40;99.90;;;;;;20829128;28;20630;-66
2021/12/18 18:55:35;;;;;;;0.20;0.10;;;10.40;99.90;;;;;;20830491;28;20236;-69
2021/12/18 19:05:39;;;;;;;0.20;0.10;;;10.50;99.90;;;;;;20910502;28;20309;-68
2021/12/18 19:15:45;;;;;;;0.20;0.10;;;10.40;99.90;;;;;;20908800;28;20225;-67
2021/12/18 19:25:49;;;;;;;0.20;0.10;;;10.10;99.90;;;;;;20888504;28;20621;-68
2021/12/18 19:35:55;;;;;;;0.20;0.00;;;10.10;99.90;;;;;;20900735;28;20275;-68
2021/12/18 19:46:10;;;;;;;0.20;0.00;;;10.00;99.90;;;;;;20903476;28;20211;-69
2021/12/18 19:56:15;;;;;;;0.20;0.07;;;10.20;99.90;;;;;;20903083;28;20299;-67
2021/12/18 20:06:19;;;;;;;0.20;0.10;;;10.30;99.90;;;;;;20903713;28;20308;-68
2021/12/18 20:16:24;;;;;;;0.20;0.10;;;10.40;99.90;;;;;;20905329;28;20218;-67
2021/12/18 20:26:28;;;;;;;0.20;0.10;;;10.60;99.90;;;;;;20902581;28;20568;-66
2021/12/18 20:36:33;;;;;;;0.20;0.10;;;10.90;99.90;;;;;;20856631;28;20320;-67
2021/12/18 20:46:37;;;;;;;2.00;1.90;;;11.00;99.90;;;;;;20819212;28;20210;-67
2021/12/18 20:56:43;;;;;;;0.20;0.10;;;11.00;99.90;;;;;;20838543;28;20230;-66
2021/12/18 21:06:48;;;;;;;0.20;0.10;;;11.10;99.90;;;;;;20895639;28;20255;-67
2021/12/18 21:16:57;;;;;;;0.20;0.10;;;11.10;99.90;;;;;;20901755;28;20326;-68
2021/12/18 21:27:01;;;;;;;2.20;2.10;;;10.90;99.90;;;;;;20914431;28;20277;-68
2021/12/18 21:37:06;;;;;;;0.20;0.10;;;10.60;99.90;;;;;;20866770;28;20226;-68
2021/12/18 21:47:13;;;;;;;0.20;0.10;;;10.30;99.90;;;;;;20832081;28;20202;-68
2021/12/18 21:57:18;;;;;;;0.20;0.10;;;10.00;99.90;;;;;;20815123;28;20226;-68
2021/12/18 22:07:22;;;;;;;0.20;0.10;;;10.00;99.90;;;;;;20815717;28;20253;-68
2021/12/18 22:17:27;;;;;;;0.83;0.57;;;10.40;99.90;;;;;;20903465;28;20301;-69
2021/12/18 22:27:31;;;;;;;0.20;0.10;;;10.30;99.90;;;;;;20913930;28;20194;-69
2021/12/18 22:37:36;;;;;;;0.20;0.07;;;10.30;99.90;;;;;;20910956;28;20229;-68
2021/12/18 22:47:39;;;;;;;0.20;0.10;;;10.20;99.90;;;;;;20913516;28;20285;-69
2021/12/18 22:57:45;;;;;;;0.20;0.10;;;9.90;99.90;;;;;;20912380;28;20194;-68
2021/12/18 23:07:49;;;;;;;0.20;0.10;;;9.80;99.90;;;;;;20911013;28;20228;-68
2021/12/18 23:18:07;;;;;;;0.20;0.07;;;9.70;99.90;;;;;;20909931;28;20678;-68
2021/12/18 23:28:15;;;;;;;0.20;0.07;;;9.50;99.90;;;;;;20908479;28;20646;-68
2021/12/18 23:38:22;;;;;;;0.20;0.10;;;9.40;99.90;;;;;;20849202;28;20194;-68
2021/12/18 23:48:25;;;;;;;0.20;0.10;;;9.40;99.90;;;;;;20826208;28;20234;-68
2021/12/18 23:58:31;;;;;;;0.20;0.10;;;9.40;99.90;;;;;;20824518;28;20608;-69
